createdAt,value
2018-09-02T00:01:37.636Z,17.33
2018-09-02T00:04:06.379Z,18.60
2018-09-02T00:06:35.888Z,15.80
2018-09-02T00:09:05.365Z,15.33
2018-09-02T00:11:33.935Z,16.27
2018-09-02T00:14:02.551Z,17.63
2018-09-02T00:16:31.128Z,19.03
2018-09-02T00:18:59.709Z,14.83
2018-09-02T00:21:28.398Z,14.37
2018-09-02T00:23:57.065Z,14.53
2018-09-02T00:26:25.701Z,14.60
2018-09-02T00:28:54.383Z,20.27
2018-09-02T00:31:23.303Z,15.60
2018-09-02T00:33:52.175Z,14.30
2018-09-02T00:36:20.958Z,17.33
2018-09-02T00:38:49.709Z,14.27
2018-09-02T00:41:18.371Z,13.87
2018-09-02T00:43:47.051Z,19.57
2018-09-02T00:46:15.926Z,18.60
2018-09-02T00:48:44.644Z,16.23
2018-09-02T00:51:13.263Z,14.87
2018-09-02T00:53:42.036Z,18.67
2018-09-02T00:56:10.758Z,17.60
2018-09-02T00:58:39.376Z,19.53
2018-09-02T01:01:07.946Z,19.57
2018-09-02T01:03:36.627Z,12.83
2018-09-02T01:06:05.346Z,20.23
2018-09-02T01:08:33.961Z,18.60
2018-09-02T01:11:02.595Z,18.57
2018-09-02T01:13:31.340Z,19.40
2018-09-02T01:16:00.024Z,17.33
2018-09-02T01:18:28.718Z,17.10
2018-09-02T01:20:57.430Z,17.97
2018-09-02T01:23:26.151Z,15.83
2018-09-02T01:25:54.885Z,15.37
2018-09-02T01:28:23.571Z,10.30
2018-09-02T01:30:52.170Z,16.50
2018-09-02T01:33:20.738Z,20.80
2018-09-02T01:35:49.320Z,16.97
2018-09-02T01:38:17.903Z,16.67
2018-09-02T01:40:46.573Z,14.37
2018-09-02T01:43:15.236Z,13.20
2018-09-02T01:45:44.006Z,13.57
2018-09-02T01:48:12.775Z,17.03
2018-09-02T01:50:41.581Z,14.83
2018-09-02T01:53:10.396Z,12.90
2018-09-02T01:55:39.203Z,14.73
2018-09-02T01:58:07.965Z,18.93
2018-09-02T02:00:36.775Z,21.07
2018-09-02T02:03:05.391Z,13.33
2018-09-02T02:05:34.030Z,11.37
2018-09-02T02:08:02.646Z,18.80
2018-09-02T02:10:31.478Z,14.83
2018-09-02T02:13:00.256Z,14.47
2018-09-02T02:15:28.923Z,23.30
2018-09-02T02:17:57.655Z,15.30
2018-09-02T02:20:26.371Z,15.77
2018-09-02T02:22:55.063Z,13.20
2018-09-02T02:25:23.775Z,19.57
2018-09-02T02:27:52.451Z,16.20
2018-09-02T02:30:21.138Z,17.40
2018-09-02T02:32:49.708Z,13.40
2018-09-02T02:35:18.345Z,18.93
2018-09-02T02:37:46.968Z,17.90
2018-09-02T02:40:15.651Z,17.37
2018-09-02T02:42:44.391Z,19.60
2018-09-02T02:45:13.106Z,21.03
2018-09-02T02:47:41.993Z,15.73
2018-09-02T02:50:10.739Z,17.37
2018-09-02T02:52:44.928Z,18.90
2018-09-02T02:55:13.599Z,16.73
2018-09-02T02:57:42.326Z,16.33
2018-09-02T03:00:11.138Z,16.03
2018-09-02T03:02:39.961Z,16.60
2018-09-02T03:05:09.863Z,13.33
2018-09-02T03:07:38.566Z,17.53
2018-09-02T03:10:07.323Z,15.30
2018-09-02T03:12:36.126Z,20.27
2018-09-02T03:15:05.516Z,21.13
2018-09-02T03:17:34.373Z,18.20
2018-09-02T03:20:03.118Z,18.70
2018-09-02T03:22:31.858Z,16.50
2018-09-02T03:25:00.536Z,18.20
2018-09-02T03:27:29.201Z,17.57
2018-09-02T03:29:57.966Z,23.23
2018-09-02T03:32:26.802Z,17.57
2018-09-02T03:34:55.575Z,10.97
2018-09-02T03:37:24.318Z,14.73
2018-09-02T03:39:53.019Z,15.60
2018-09-02T03:42:21.707Z,14.30
2018-09-02T03:44:50.450Z,14.70
2018-09-02T03:47:19.130Z,15.90
2018-09-02T03:49:47.766Z,17.70
2018-09-02T03:52:16.358Z,14.27
2018-09-02T03:54:44.939Z,16.73
2018-09-02T03:57:13.563Z,15.87
2018-09-02T03:59:42.218Z,18.20
2018-09-02T04:02:10.916Z,17.63
2018-09-02T04:04:39.610Z,16.57
2018-09-02T04:07:08.363Z,17.53
2018-09-02T04:09:37.189Z,19.27
2018-09-02T04:12:06.048Z,17.30
2018-09-02T04:14:34.800Z,16.07
2018-09-02T04:17:03.680Z,20.07
2018-09-02T04:19:32.483Z,16.27
2018-09-02T04:22:01.236Z,13.77
2018-09-02T04:24:30.058Z,14.63
2018-09-02T04:26:58.913Z,17.67
2018-09-02T04:29:27.581Z,14.13
2018-09-02T04:31:56.236Z,20.43
2018-09-02T04:34:24.884Z,19.07
2018-09-02T04:36:53.571Z,18.43
2018-09-02T04:39:22.406Z,19.07
2018-09-02T04:41:51.343Z,17.37
2018-09-02T04:44:20.184Z,15.13
2018-09-02T04:46:49.044Z,20.70
2018-09-02T04:49:17.817Z,17.43
2018-09-02T04:51:46.517Z,14.80
2018-09-02T04:54:15.301Z,16.20
2018-09-02T04:56:44.126Z,16.00
2018-09-02T04:59:12.946Z,10.63
2018-09-02T05:01:41.658Z,17.93
2018-09-02T05:04:10.339Z,14.77
2018-09-02T05:06:39.416Z,11.90
2018-09-02T05:09:08.276Z,17.57
2018-09-02T05:11:37.035Z,13.40
2018-09-02T05:14:05.821Z,15.67
2018-09-02T05:16:34.546Z,12.87
2018-09-02T05:19:03.237Z,10.93
2018-09-02T05:21:31.876Z,14.53
2018-09-02T05:24:00.598Z,13.80
2018-09-02T05:26:29.198Z,17.60
2018-09-02T05:28:57.803Z,15.20
2018-09-02T05:31:26.391Z,11.03
2018-09-02T05:33:55.016Z,10.40
2018-09-02T05:36:23.609Z,13.13
2018-09-02T05:38:52.304Z,10.97
2018-09-02T05:41:21.045Z,10.23
2018-09-02T05:43:49.770Z,10.77
2018-09-02T05:46:18.416Z,13.53
2018-09-02T05:48:47.080Z,12.67
2018-09-02T05:51:15.658Z,15.17
2018-09-02T05:53:44.249Z,14.70
2018-09-02T05:56:12.863Z,17.90
2018-09-02T05:58:41.499Z,13.07
2018-09-02T06:01:11.954Z,10.43
2018-09-02T06:04:04.730Z,11.93
2018-09-02T06:06:34.230Z,16.13
2018-09-02T06:09:04.459Z,13.30
2018-09-02T06:11:33.184Z,14.43
2018-09-02T06:14:01.994Z,16.50
2018-09-02T06:16:30.704Z,13.83
2018-09-02T06:18:59.536Z,17.17
2018-09-02T06:21:28.859Z,12.80
2018-09-02T06:23:57.764Z,14.00
2018-09-02T06:26:26.390Z,15.80
2018-09-02T06:28:55.064Z,11.30
2018-09-02T06:31:23.696Z,15.17
2018-09-02T06:33:52.406Z,14.00
2018-09-02T06:36:21.089Z,13.73
2018-09-02T06:38:49.977Z,13.70
2018-09-02T06:41:18.858Z,21.77
2018-09-02T06:43:47.606Z,13.77
2018-09-02T06:46:16.296Z,13.60
2018-09-02T06:48:44.999Z,14.57
2018-09-02T06:51:13.661Z,14.10
2018-09-02T06:53:42.274Z,13.23
2018-09-02T06:56:11.123Z,13.07
2018-09-02T06:58:40.073Z,12.93
2018-09-02T07:01:08.705Z,13.03
2018-09-02T07:03:37.497Z,17.33
2018-09-02T07:06:06.251Z,13.13
2018-09-02T07:08:34.826Z,14.13
2018-09-02T07:11:03.515Z,10.48
2018-09-02T07:13:32.167Z,12.87
2018-09-02T07:16:00.887Z,15.70
2018-09-02T07:18:29.627Z,13.50
2018-09-02T07:20:59.211Z,13.03
2018-09-02T07:23:27.946Z,20.23
2018-09-02T07:25:56.697Z,22.83
2018-09-02T07:28:25.401Z,26.03
2018-09-02T07:30:54.278Z,24.07
2018-09-02T07:33:23.121Z,22.10
2018-09-02T07:35:51.896Z,21.23
2018-09-02T07:38:20.609Z,20.17
2018-09-02T07:40:49.259Z,19.10
2018-09-02T07:43:17.911Z,13.30
2018-09-02T07:45:46.744Z,16.40
2018-09-02T07:48:15.538Z,15.10
2018-09-02T07:50:44.266Z,14.43
2018-09-02T07:53:13.016Z,17.27
2018-09-02T07:55:41.739Z,14.20
2018-09-02T07:58:10.454Z,19.35
2018-09-02T08:00:39.166Z,15.30
2018-09-02T08:03:08.147Z,17.17
2018-09-02T08:05:36.966Z,15.45
2018-09-02T08:08:05.793Z,11.30
2018-09-02T08:10:34.456Z,17.75
2018-09-02T08:13:03.124Z,14.90
2018-09-02T08:15:31.907Z,21.35
2018-09-02T08:18:00.751Z,10.60
2018-09-02T08:20:29.513Z,14.30
2018-09-02T08:22:58.383Z,15.00
2018-09-02T08:25:27.117Z,11.15
2018-09-02T08:27:55.771Z,13.28
2018-09-02T08:30:24.411Z,13.88
2018-09-02T08:32:54.006Z,16.73
2018-09-02T08:35:22.668Z,15.93
2018-09-02T08:37:51.319Z,16.25
2018-09-02T08:40:20.099Z,12.95
2018-09-02T08:42:48.784Z,16.73
2018-09-02T08:45:17.432Z,16.90
2018-09-02T08:47:46.159Z,16.48
2018-09-02T08:50:14.805Z,10.30
2018-09-02T08:52:43.502Z,12.75
2018-09-02T08:55:12.186Z,11.00
2018-09-02T08:57:42.229Z,8.60
2018-09-02T09:00:11.926Z,5.85
2018-09-02T09:02:40.702Z,7.00
2018-09-02T09:05:09.735Z,9.28
2018-09-02T09:07:38.995Z,12.05
2018-09-02T09:10:07.967Z,12.35
2018-09-02T09:12:36.836Z,10.28
2018-09-02T09:15:05.879Z,10.32
2018-09-02T09:17:34.573Z,11.25
2018-09-02T09:20:03.323Z,15.40
2018-09-02T09:22:32.071Z,6.80
2018-09-02T09:25:01.307Z,8.53
2018-09-02T09:27:29.991Z,10.58
2018-09-02T09:29:58.664Z,9.13
2018-09-02T09:32:27.304Z,9.70
2018-09-02T09:34:55.904Z,8.78
2018-09-02T09:37:24.891Z,9.20
2018-09-02T09:39:53.732Z,7.92
2018-09-02T09:42:22.556Z,13.48
2018-09-02T09:44:51.340Z,10.00
2018-09-02T09:47:20.039Z,7.80
2018-09-02T09:49:49.126Z,9.78
2018-09-02T09:52:17.890Z,11.15
2018-09-02T09:54:46.599Z,9.38
2018-09-02T09:57:15.268Z,9.83
2018-09-02T09:59:44.057Z,9.38
2018-09-02T10:02:12.919Z,8.53
2018-09-02T10:04:41.726Z,13.72
2018-09-02T10:07:10.531Z,9.48
2018-09-02T10:09:39.296Z,9.50
2018-09-02T10:12:08.068Z,11.10
2018-09-02T10:14:36.829Z,9.15
2018-09-02T10:17:05.665Z,7.47
2018-09-02T10:19:34.489Z,9.70
2018-09-02T10:22:03.351Z,9.50
2018-09-02T10:24:32.124Z,7.47
2018-09-02T10:27:00.896Z,18.98
2018-09-02T10:29:29.599Z,14.05
2018-09-02T10:31:58.273Z,11.05
2018-09-02T10:34:26.972Z,8.25
2018-09-02T10:36:55.839Z,12.28
2018-09-02T10:39:25.544Z,10.45
2018-09-02T10:41:54.373Z,17.45
2018-09-02T10:44:23.112Z,11.60
2018-09-02T10:46:51.819Z,11.17
2018-09-02T10:49:20.574Z,8.48
2018-09-02T10:51:49.319Z,10.08
2018-09-02T10:54:17.963Z,9.58
2018-09-02T10:56:46.677Z,12.20
2018-09-02T10:59:15.587Z,11.15
2018-09-02T11:01:44.418Z,9.27
2018-09-02T11:04:13.328Z,10.57
2018-09-02T11:06:42.159Z,11.15
2018-09-02T11:09:11.474Z,10.17
2018-09-02T11:11:40.295Z,11.77
2018-09-02T11:14:09.767Z,10.87
2018-09-02T11:16:38.879Z,9.90
2018-09-02T11:19:07.774Z,8.20
2018-09-02T11:21:36.564Z,9.00
2018-09-02T11:24:05.468Z,9.17
2018-09-02T11:26:34.151Z,10.83
2018-09-02T11:29:03.643Z,10.50
2018-09-02T11:31:32.791Z,9.40
2018-09-02T11:34:01.695Z,9.17
2018-09-02T11:36:30.492Z,10.77
2018-09-02T11:38:59.349Z,8.33
2018-09-02T11:41:28.061Z,13.30
2018-09-02T11:43:56.778Z,10.93
2018-09-02T11:46:25.649Z,10.27
2018-09-02T11:48:54.359Z,12.47
2018-09-02T11:51:23.011Z,13.60
2018-09-02T11:53:51.697Z,9.87
2018-09-02T11:56:20.471Z,12.00
2018-09-02T11:58:49.374Z,9.57
2018-09-02T12:01:18.121Z,15.30
2018-09-02T12:03:46.959Z,15.47
2018-09-02T12:06:15.746Z,18.67
2018-09-02T12:08:44.621Z,12.87
2018-09-02T12:11:13.301Z,13.70
2018-09-02T12:13:42.051Z,13.10
2018-09-02T12:16:10.797Z,12.20
2018-09-02T12:18:39.614Z,12.50
2018-09-02T12:21:08.374Z,13.67
2018-09-02T12:23:37.134Z,11.53
2018-09-02T12:26:06.784Z,13.50
2018-09-02T12:28:35.596Z,15.10
2018-09-02T12:31:04.391Z,14.37
2018-09-02T12:33:33.250Z,13.20
2018-09-02T12:36:02.089Z,14.40
2018-09-02T12:38:30.986Z,13.63
2018-09-02T12:40:59.821Z,13.67
2018-09-02T12:43:28.610Z,12.13
2018-09-02T12:45:57.579Z,10.93
2018-09-02T12:48:26.948Z,10.87
2018-09-02T12:50:56.449Z,8.23
2018-09-02T12:53:25.190Z,8.20
2018-09-02T12:55:53.970Z,10.60
2018-09-02T12:58:22.950Z,12.03
2018-09-02T13:00:51.755Z,12.80
2018-09-02T13:03:21.196Z,9.90
2018-09-02T13:05:49.963Z,10.17
2018-09-02T13:08:18.799Z,9.80
2018-09-02T13:10:48.583Z,11.03
2018-09-02T13:13:17.612Z,15.27
2018-09-02T13:15:46.516Z,12.77
2018-09-02T13:18:15.273Z,11.90
2018-09-02T13:20:44.105Z,9.93
2018-09-02T13:23:13.003Z,6.63
2018-09-02T13:25:42.011Z,11.20
2018-09-02T13:28:10.753Z,12.37
2018-09-02T13:30:39.603Z,8.33
2018-09-02T13:33:08.686Z,10.17
2018-09-02T13:35:37.391Z,9.80
2018-09-02T13:38:06.827Z,10.70
2018-09-02T13:40:35.725Z,9.57
2018-09-02T13:43:05.071Z,10.43
2018-09-02T13:45:33.919Z,9.77
2018-09-02T13:48:03.611Z,8.60
2018-09-02T13:50:32.313Z,8.30
2018-09-02T13:53:00.967Z,7.60
2018-09-02T13:55:29.670Z,9.93
2018-09-02T13:57:58.476Z,8.60
2018-09-02T14:00:27.374Z,9.10
2018-09-02T14:02:56.202Z,9.50
2018-09-02T14:05:25.064Z,7.80
2018-09-02T14:07:53.965Z,10.27
2018-09-02T14:10:22.707Z,8.17
2018-09-02T14:12:51.661Z,7.13
2018-09-02T14:15:21.334Z,7.10
2018-09-02T14:17:50.162Z,9.33
2018-09-02T14:20:18.998Z,6.53
2018-09-02T14:22:47.872Z,7.97
2018-09-02T14:25:16.687Z,4.73
2018-09-02T14:27:45.472Z,6.57
2018-09-02T14:30:14.282Z,9.20
2018-09-02T14:32:43.232Z,6.00
2018-09-02T14:35:12.075Z,5.97
2018-09-02T14:37:40.963Z,6.70
2018-09-02T14:40:09.738Z,5.45
2018-09-02T14:42:39.419Z,6.40
2018-09-02T14:45:08.079Z,4.90
2018-09-02T14:47:36.902Z,5.75
2018-09-02T14:50:06.404Z,4.05
2018-09-02T14:52:35.209Z,5.53
2018-09-02T14:55:04.287Z,5.92
2018-09-02T14:57:33.146Z,5.47
2018-09-02T15:00:01.824Z,6.65
2018-09-02T15:02:30.627Z,4.40
2018-09-02T15:04:59.384Z,5.72
2018-09-02T15:07:28.082Z,5.83
2018-09-02T15:09:57.301Z,6.10
2018-09-02T15:12:26.311Z,6.10
2018-09-02T15:14:54.969Z,4.30
2018-09-02T15:17:23.801Z,7.10
2018-09-02T15:19:52.746Z,7.05
2018-09-02T15:22:21.481Z,6.42
2018-09-02T15:24:50.151Z,5.00
2018-09-02T15:27:18.880Z,5.90
2018-09-02T15:29:47.511Z,4.83
2018-09-02T15:32:16.238Z,4.47
2018-09-02T15:34:44.951Z,4.85
2018-09-02T15:37:13.567Z,6.92
2018-09-02T15:39:42.324Z,5.83
2018-09-02T15:42:11.059Z,6.30
2018-09-02T15:44:39.911Z,6.95
2018-09-02T15:47:08.680Z,5.40
2018-09-02T15:49:37.436Z,4.60
2018-09-02T15:52:06.248Z,8.37
2018-09-02T15:54:34.889Z,7.37
2018-09-02T15:57:04.722Z,13.97
2018-09-02T15:59:33.511Z,7.40
2018-09-02T16:02:02.538Z,7.43
2018-09-02T16:04:31.708Z,9.90
2018-09-02T16:07:00.787Z,4.80
2018-09-02T16:09:30.128Z,6.47
2018-09-02T16:11:59.508Z,8.83
2018-09-02T16:14:28.855Z,5.40
2018-09-02T16:16:58.748Z,7.20
2018-09-02T16:19:28.186Z,9.53
2018-09-02T16:21:58.201Z,5.53
2018-09-02T16:24:28.712Z,7.33
2018-09-02T16:26:58.279Z,8.90
2018-09-02T16:29:27.785Z,6.37
2018-09-02T16:31:57.463Z,5.57
2018-09-02T16:34:28.428Z,9.10
2018-09-02T16:36:58.026Z,6.97
2018-09-02T16:39:27.631Z,6.70
2018-09-02T16:41:57.205Z,6.00
2018-09-02T16:44:26.823Z,5.90
2018-09-02T16:46:56.350Z,5.93
2018-09-02T16:49:25.956Z,7.87
2018-09-02T16:51:55.404Z,12.67
2018-09-02T16:54:24.981Z,6.80
2018-09-02T16:56:54.457Z,5.40
2018-09-02T16:59:23.971Z,9.80
2018-09-02T17:01:55.630Z,6.73
2018-09-02T17:04:26.700Z,7.43
2018-09-02T17:06:56.231Z,8.50
2018-09-02T17:09:25.927Z,8.93
2018-09-02T17:11:55.533Z,7.03
2018-09-02T17:14:25.067Z,7.27
2018-09-02T17:16:54.562Z,9.57
2018-09-02T17:19:31.329Z,8.30
2018-09-02T17:22:00.811Z,8.50
2018-09-02T17:24:30.142Z,7.63
2018-09-02T17:26:59.742Z,7.00
2018-09-02T17:29:29.523Z,7.40
2018-09-02T17:32:00.624Z,9.83
2018-09-02T17:34:29.983Z,6.43
2018-09-02T17:36:59.318Z,7.47
2018-09-02T17:39:28.368Z,6.93
2018-09-02T17:41:57.366Z,5.70
2018-09-02T17:44:26.626Z,5.00
2018-09-02T17:46:55.576Z,6.43
2018-09-02T17:49:24.886Z,12.20
2018-09-02T17:51:54.193Z,10.30
2018-09-02T17:54:23.570Z,6.90
2018-09-02T17:56:52.413Z,6.23
2018-09-02T17:59:22.082Z,7.03
2018-09-02T18:01:51.431Z,9.10
2018-09-02T18:04:20.365Z,5.63
2018-09-02T18:06:49.154Z,6.77
2018-09-02T18:09:17.891Z,7.73
2018-09-02T18:11:46.704Z,6.43
2018-09-02T18:14:15.431Z,8.20
2018-09-02T18:16:45.240Z,6.83
2018-09-02T18:19:14.028Z,7.30
2018-09-02T18:21:42.806Z,6.77
2018-09-02T18:24:11.585Z,7.70
2018-09-02T18:26:40.343Z,6.67
2018-09-02T18:29:09.146Z,8.00
2018-09-02T18:31:37.964Z,9.37
2018-09-02T18:34:06.867Z,7.87
2018-09-02T18:36:35.897Z,8.93
2018-09-02T18:39:08.209Z,6.17
2018-09-02T18:41:37.091Z,6.87
2018-09-02T18:44:06.082Z,10.63
2018-09-02T18:46:35.248Z,10.43
2018-09-02T18:49:04.878Z,9.27
2018-09-02T18:51:34.409Z,9.03
2018-09-02T18:54:03.316Z,9.50
2018-09-02T18:56:32.171Z,9.63
2018-09-02T18:59:05.617Z,10.83
2018-09-02T19:01:36.421Z,12.57
2018-09-02T19:04:05.820Z,9.57
2018-09-02T19:06:34.559Z,11.17
2018-09-02T19:09:03.783Z,8.47
2018-09-02T19:11:33.332Z,11.53
2018-09-02T19:14:02.101Z,11.13
2018-09-02T19:16:30.789Z,7.77
2018-09-02T19:19:01.363Z,9.87
2018-09-02T19:21:30.126Z,9.80
2018-09-02T19:23:58.833Z,7.87
2018-09-02T19:26:27.633Z,10.10
2018-09-02T19:28:57.488Z,9.17
2018-09-02T19:31:26.668Z,10.97
2018-09-02T19:33:55.776Z,9.53
2018-09-02T19:36:24.852Z,10.47
2018-09-02T19:38:54.623Z,12.03
2018-09-02T19:41:24.027Z,13.93
2018-09-02T19:43:53.753Z,9.30
2018-09-02T19:46:23.804Z,9.63
2018-09-02T19:48:52.774Z,9.37
2018-09-02T19:51:21.764Z,8.40
2018-09-02T19:53:50.796Z,6.47
2018-09-02T19:56:20.199Z,7.57
2018-09-02T19:58:49.023Z,9.90
2018-09-02T20:01:18.011Z,9.50
2018-09-02T20:03:46.913Z,7.03
2018-09-02T20:06:16.372Z,8.70
2018-09-02T20:08:46.036Z,7.40
2018-09-02T20:11:14.930Z,8.57
2018-09-02T20:13:46.883Z,10.33
2018-09-02T20:16:16.557Z,11.10
2018-09-02T20:18:46.338Z,10.63
2018-09-02T20:21:16.219Z,13.47
2018-09-02T20:23:45.423Z,12.73
2018-09-02T20:26:14.272Z,12.13
2018-09-02T20:28:43.529Z,13.40
2018-09-02T20:31:12.378Z,11.97
2018-09-02T20:33:41.270Z,9.77
2018-09-02T20:36:10.177Z,8.37
2018-09-02T20:38:40.236Z,10.13
2018-09-02T20:41:08.911Z,8.47
2018-09-02T20:43:38.193Z,7.60
2018-09-02T20:46:06.946Z,9.67
2018-09-02T20:48:36.198Z,11.20
2018-09-02T20:51:05.593Z,9.63
2018-09-02T20:53:34.275Z,11.43
2018-09-02T20:56:03.087Z,11.07
2018-09-02T20:58:32.766Z,10.00
2018-09-02T21:01:02.142Z,9.57
2018-09-02T21:03:31.043Z,10.10
2018-09-02T21:05:59.874Z,9.63
2018-09-02T21:08:28.686Z,8.97
2018-09-02T21:10:57.394Z,13.60
2018-09-02T21:13:26.019Z,11.30
2018-09-02T21:15:54.726Z,11.57
2018-09-02T21:18:23.536Z,9.53
2018-09-02T21:20:52.313Z,12.63
2018-09-02T21:23:21.156Z,9.17
2018-09-02T21:25:49.879Z,12.60
2018-09-02T21:28:18.545Z,11.97
2018-09-02T21:30:47.184Z,13.57
2018-09-02T21:33:16.003Z,8.60
2018-09-02T21:35:45.024Z,11.83
2018-09-02T21:38:13.702Z,8.43
2018-09-02T21:40:42.431Z,12.77
2018-09-02T21:43:11.127Z,10.47
2018-09-02T21:45:39.908Z,10.73
2018-09-02T21:48:08.641Z,12.83
2018-09-02T21:50:37.441Z,9.77
2018-09-02T21:53:06.527Z,9.17
2018-09-02T21:55:35.329Z,9.50
2018-09-02T21:58:03.996Z,11.70
2018-09-02T22:00:32.694Z,10.63
2018-09-02T22:03:01.351Z,11.20
2018-09-02T22:05:30.069Z,11.33
2018-09-02T22:07:58.698Z,9.37
2018-09-02T22:10:27.359Z,13.97
2018-09-02T22:12:56.018Z,12.83
2018-09-02T22:15:24.758Z,10.20
2018-09-02T22:17:53.539Z,9.30
2018-09-02T22:20:22.372Z,9.43
2018-09-02T22:22:51.119Z,12.00
2018-09-02T22:25:19.809Z,13.33
2018-09-02T22:27:48.851Z,12.67
2018-09-02T22:30:18.646Z,11.03
2018-09-02T22:32:47.237Z,11.43
2018-09-02T22:35:15.906Z,12.70
2018-09-02T22:37:44.624Z,11.37
2018-09-02T22:40:13.963Z,12.77
2018-09-02T22:42:42.747Z,10.73
2018-09-02T22:45:11.501Z,12.00
2018-09-02T22:47:40.303Z,12.77
2018-09-02T22:50:09.039Z,15.50
2018-09-02T22:52:39.563Z,11.27
2018-09-02T22:55:08.579Z,12.60
2018-09-02T22:57:37.193Z,13.03
2018-09-02T23:00:06.523Z,15.13
2018-09-02T23:02:35.144Z,12.13
2018-09-02T23:05:04.734Z,16.50
2018-09-02T23:07:33.351Z,11.77
2018-09-02T23:10:01.952Z,14.57
2018-09-02T23:12:30.724Z,14.33
2018-09-02T23:14:59.351Z,14.23
2018-09-02T23:17:27.926Z,17.80
2018-09-02T23:19:56.686Z,13.00
2018-09-02T23:22:25.347Z,15.43
2018-09-02T23:24:54.090Z,12.47
2018-09-02T23:27:22.817Z,12.50
2018-09-02T23:29:51.551Z,16.50
2018-09-02T23:32:20.261Z,12.87
2018-09-02T23:34:48.978Z,10.90
2018-09-02T23:37:17.671Z,10.43
2018-09-02T23:39:46.445Z,12.83
2018-09-02T23:42:15.143Z,11.70
2018-09-02T23:44:43.793Z,10.10
2018-09-02T23:47:12.391Z,10.63
2018-09-02T23:49:41.035Z,14.53
2018-09-02T23:52:09.611Z,12.83
2018-09-02T23:54:38.311Z,12.30
2018-09-02T23:57:07.066Z,15.57
2018-09-02T23:59:35.811Z,12.73
